sensor_id;sensor_type;location;lat;lon;timestamp;P1;durP1;ratioP1;P2;durP2;ratioP2
18544;SDS011;9402;51.460;7.276;2023-04-01T00:00:20;7.10;;;1.40;;
18544;SDS011;9402;51.460;7.276;2023-04-01T00:02:23;4.97;;;1.30;;
18544;SDS011;9402;51.460;7.276;2023-04-01T00:04:26;10.00;;;1.63;;
18544;SDS011;9402;51.460;7.276;2023-04-01T00:06:29;9.13;;;1.40;;
18544;SDS011;9402;51.460;7.276;2023-04-01T00:08:32;6.70;;;1.60;;
18544;SDS011;9402;51.460;7.276;2023-04-01T00:10:34;6.63;;;1.33;;
18544;SDS011;9402;51.460;7.276;2023-04-01T00:12:37;8.97;;;1.67;;
18544;SDS011;9402;51.460;7.276;2023-04-01T00:14:39;7.60;;;1.43;;
18544;SDS011;9402;51.460;7.276;2023-04-01T00:16:42;6.90;;;1.50;;
18544;SDS011;9402;51.460;7.276;2023-04-01T00:18:44;7.90;;;1.93;;
18544;SDS011;9402;51.460;7.276;2023-04-01T00:20:47;6.50;;;1.47;;
18544;SDS011;9402;51.460;7.276;2023-04-01T00:22:52;6.43;;;1.20;;
18544;SDS011;9402;51.460;7.276;2023-04-01T00:24:55;8.83;;;1.63;;
18544;SDS011;9402;51.460;7.276;2023-04-01T00:26:57;4.13;;;1.10;;
18544;SDS011;9402;51.460;7.276;2023-04-01T00:28:59;5.30;;;1.30;;
18544;SDS011;9402;51.460;7.276;2023-04-01T00:31:03;6.57;;;1.53;;
18544;SDS011;9402;51.460;7.276;2023-04-01T00:33:06;7.53;;;1.90;;
18544;SDS011;9402;51.460;7.276;2023-04-01T00:35:09;6.20;;;1.20;;
18544;SDS011;9402;51.460;7.276;2023-04-01T00:37:12;6.07;;;1.50;;
18544;SDS011;9402;51.460;7.276;2023-04-01T00:39:16;4.17;;;1.40;;
18544;SDS011;9402;51.460;7.276;2023-04-01T00:41:19;4.20;;;1.30;;
18544;SDS011;9402;51.460;7.276;2023-04-01T00:43:21;12.50;;;1.63;;
18544;SDS011;9402;51.460;7.276;2023-04-01T00:45:29;9.67;;;1.63;;
18544;SDS011;9402;51.460;7.276;2023-04-01T00:47:34;5.80;;;1.60;;
18544;SDS011;9402;51.460;7.276;2023-04-01T00:49:37;8.27;;;1.23;;
18544;SDS011;9402;51.460;7.276;2023-04-01T00:51:40;5.17;;;1.30;;
18544;SDS011;9402;51.460;7.276;2023-04-01T00:53:45;6.37;;;1.17;;
18544;SDS011;9402;51.460;7.276;2023-04-01T00:55:51;3.83;;;1.10;;
18544;SDS011;9402;51.460;7.276;2023-04-01T00:57:57;5.50;;;1.10;;
18544;SDS011;9402;51.460;7.276;2023-04-01T01:00:00;11.30;;;1.40;;
18544;SDS011;9402;51.460;7.276;2023-04-01T01:02:05;4.10;;;1.20;;
18544;SDS011;9402;51.460;7.276;2023-04-01T01:04:20;4.67;;;1.10;;
18544;SDS011;9402;51.460;7.276;2023-04-01T01:06:26;5.20;;;1.70;;
18544;SDS011;9402;51.460;7.276;2023-04-01T01:11:02;5.67;;;1.50;;
18544;SDS011;9402;51.460;7.276;2023-04-01T01:13:09;8.10;;;1.63;;
18544;SDS011;9402;51.460;7.276;2023-04-01T01:15:15;7.80;;;1.50;;
18544;SDS011;9402;51.460;7.276;2023-04-01T01:17:23;12.23;;;1.30;;
18544;SDS011;9402;51.460;7.276;2023-04-01T01:19:42;3.20;;;1.17;;
18544;SDS011;9402;51.460;7.276;2023-04-01T01:21:56;4.53;;;1.20;;
18544;SDS011;9402;51.460;7.276;2023-04-01T01:24:22;4.60;;;1.40;;
18544;SDS011;9402;51.460;7.276;2023-04-01T01:27:02;5.33;;;1.27;;
18544;SDS011;9402;51.460;7.276;2023-04-01T01:29:07;9.40;;;1.27;;
18544;SDS011;9402;51.460;7.276;2023-04-01T01:31:18;6.73;;;1.50;;
18544;SDS011;9402;51.460;7.276;2023-04-01T01:33:32;4.13;;;1.30;;
18544;SDS011;9402;51.460;7.276;2023-04-01T01:35:43;4.87;;;1.50;;
18544;SDS011;9402;51.460;7.276;2023-04-01T01:37:49;4.50;;;1.20;;
18544;SDS011;9402;51.460;7.276;2023-04-01T01:39:56;7.20;;;1.30;;
18544;SDS011;9402;51.460;7.276;2023-04-01T01:42:03;4.00;;;1.27;;
18544;SDS011;9402;51.460;7.276;2023-04-01T01:44:07;6.00;;;1.70;;
18544;SDS011;9402;51.460;7.276;2023-04-01T01:46:11;5.70;;;1.20;;
18544;SDS011;9402;51.460;7.276;2023-04-01T01:48:16;5.03;;;1.10;;
18544;SDS011;9402;51.460;7.276;2023-04-01T01:50:19;4.50;;;1.40;;
18544;SDS011;9402;51.460;7.276;2023-04-01T01:52:23;8.20;;;1.57;;
18544;SDS011;9402;51.460;7.276;2023-04-01T01:54:25;6.73;;;1.30;;
18544;SDS011;9402;51.460;7.276;2023-04-01T01:56:28;4.00;;;1.70;;
18544;SDS011;9402;51.460;7.276;2023-04-01T01:58:32;6.00;;;1.10;;
18544;SDS011;9402;51.460;7.276;2023-04-01T02:00:40;4.10;;;1.20;;
18544;SDS011;9402;51.460;7.276;2023-04-01T02:02:45;5.03;;;1.50;;
18544;SDS011;9402;51.460;7.276;2023-04-01T02:04:48;5.57;;;1.20;;
18544;SDS011;9402;51.460;7.276;2023-04-01T02:06:53;9.37;;;1.27;;
18544;SDS011;9402;51.460;7.276;2023-04-01T02:09:01;3.53;;;1.10;;
18544;SDS011;9402;51.460;7.276;2023-04-01T02:11:05;3.83;;;1.00;;
18544;SDS011;9402;51.460;7.276;2023-04-01T02:13:10;4.97;;;1.33;;
18544;SDS011;9402;51.460;7.276;2023-04-01T02:15:15;5.13;;;1.10;;
18544;SDS011;9402;51.460;7.276;2023-04-01T02:17:19;8.50;;;1.20;;
18544;SDS011;9402;51.460;7.276;2023-04-01T02:19:24;8.33;;;1.37;;
18544;SDS011;9402;51.460;7.276;2023-04-01T02:21:29;5.73;;;1.40;;
18544;SDS011;9402;51.460;7.276;2023-04-01T02:23:32;5.40;;;1.20;;
18544;SDS011;9402;51.460;7.276;2023-04-01T02:25:37;7.00;;;1.10;;
18544;SDS011;9402;51.460;7.276;2023-04-01T02:27:40;5.37;;;1.53;;
18544;SDS011;9402;51.460;7.276;2023-04-01T02:29:44;4.20;;;1.03;;
18544;SDS011;9402;51.460;7.276;2023-04-01T02:31:47;6.00;;;1.30;;
18544;SDS011;9402;51.460;7.276;2023-04-01T02:33:50;4.20;;;1.30;;
18544;SDS011;9402;51.460;7.276;2023-04-01T02:35:53;8.63;;;1.23;;
18544;SDS011;9402;51.460;7.276;2023-04-01T02:37:55;6.77;;;1.30;;
18544;SDS011;9402;51.460;7.276;2023-04-01T02:39:58;4.53;;;1.30;;
18544;SDS011;9402;51.460;7.276;2023-04-01T02:42:02;4.30;;;1.07;;
18544;SDS011;9402;51.460;7.276;2023-04-01T02:44:05;5.03;;;1.30;;
18544;SDS011;9402;51.460;7.276;2023-04-01T02:46:08;3.40;;;1.10;;
18544;SDS011;9402;51.460;7.276;2023-04-01T02:48:10;4.53;;;1.20;;
18544;SDS011;9402;51.460;7.276;2023-04-01T02:50:14;4.00;;;0.83;;
18544;SDS011;9402;51.460;7.276;2023-04-01T02:52:16;3.50;;;1.00;;
18544;SDS011;9402;51.460;7.276;2023-04-01T02:54:18;5.23;;;0.90;;
18544;SDS011;9402;51.460;7.276;2023-04-01T02:56:21;4.70;;;1.10;;
18544;SDS011;9402;51.460;7.276;2023-04-01T02:58:24;4.27;;;0.97;;
18544;SDS011;9402;51.460;7.276;2023-04-01T03:00:27;6.90;;;1.20;;
18544;SDS011;9402;51.460;7.276;2023-04-01T03:02:29;5.10;;;0.90;;
18544;SDS011;9402;51.460;7.276;2023-04-01T03:04:32;5.63;;;1.30;;
18544;SDS011;9402;51.460;7.276;2023-04-01T03:06:34;4.60;;;1.00;;
18544;SDS011;9402;51.460;7.276;2023-04-01T03:08:36;3.23;;;0.90;;
18544;SDS011;9402;51.460;7.276;2023-04-01T03:10:39;2.83;;;0.80;;
18544;SDS011;9402;51.460;7.276;2023-04-01T03:12:41;3.60;;;1.00;;
18544;SDS011;9402;51.460;7.276;2023-04-01T03:14:45;3.33;;;1.00;;
18544;SDS011;9402;51.460;7.276;2023-04-01T03:16:47;2.63;;;0.87;;
18544;SDS011;9402;51.460;7.276;2023-04-01T03:18:49;4.10;;;0.90;;
18544;SDS011;9402;51.460;7.276;2023-04-01T03:20:52;4.53;;;1.03;;
18544;SDS011;9402;51.460;7.276;2023-04-01T03:22:54;3.37;;;0.93;;
18544;SDS011;9402;51.460;7.276;2023-04-01T03:24:57;3.43;;;1.10;;
18544;SDS011;9402;51.460;7.276;2023-04-01T03:26:59;3.00;;;0.87;;
18544;SDS011;9402;51.460;7.276;2023-04-01T03:29:02;6.30;;;1.00;;
18544;SDS011;9402;51.460;7.276;2023-04-01T03:31:06;5.80;;;1.10;;
18544;SDS011;9402;51.460;7.276;2023-04-01T03:33:08;2.80;;;0.90;;
18544;SDS011;9402;51.460;7.276;2023-04-01T03:35:11;5.17;;;1.00;;
18544;SDS011;9402;51.460;7.276;2023-04-01T03:37:13;4.83;;;0.90;;
18544;SDS011;9402;51.460;7.276;2023-04-01T03:39:15;4.47;;;0.80;;
18544;SDS011;9402;51.460;7.276;2023-04-01T03:41:18;3.40;;;0.90;;
18544;SDS011;9402;51.460;7.276;2023-04-01T03:43:20;4.53;;;1.03;;
18544;SDS011;9402;51.460;7.276;2023-04-01T03:45:23;2.60;;;0.80;;
18544;SDS011;9402;51.460;7.276;2023-04-01T03:47:26;3.37;;;0.80;;
18544;SDS011;9402;51.460;7.276;2023-04-01T03:49:29;4.40;;;1.00;;
18544;SDS011;9402;51.460;7.276;2023-04-01T03:51:32;3.87;;;1.00;;
18544;SDS011;9402;51.460;7.276;2023-04-01T03:53:34;3.10;;;1.10;;
18544;SDS011;9402;51.460;7.276;2023-04-01T03:55:37;4.50;;;1.10;;
18544;SDS011;9402;51.460;7.276;2023-04-01T03:57:39;7.43;;;1.10;;
18544;SDS011;9402;51.460;7.276;2023-04-01T03:59:41;3.40;;;1.00;;
18544;SDS011;9402;51.460;7.276;2023-04-01T04:01:45;3.17;;;1.00;;
18544;SDS011;9402;51.460;7.276;2023-04-01T04:03:49;2.53;;;1.00;;
18544;SDS011;9402;51.460;7.276;2023-04-01T04:05:52;3.67;;;1.10;;
18544;SDS011;9402;51.460;7.276;2023-04-01T04:07:55;3.83;;;1.20;;
18544;SDS011;9402;51.460;7.276;2023-04-01T04:09:58;3.60;;;1.10;;
18544;SDS011;9402;51.460;7.276;2023-04-01T04:12:00;2.90;;;1.07;;
18544;SDS011;9402;51.460;7.276;2023-04-01T04:14:03;4.30;;;1.23;;
18544;SDS011;9402;51.460;7.276;2023-04-01T04:16:05;4.37;;;1.40;;
18544;SDS011;9402;51.460;7.276;2023-04-01T04:18:08;5.47;;;1.30;;
18544;SDS011;9402;51.460;7.276;2023-04-01T04:20:12;4.27;;;1.40;;
18544;SDS011;9402;51.460;7.276;2023-04-01T04:22:14;2.83;;;1.00;;
18544;SDS011;9402;51.460;7.276;2023-04-01T04:24:17;3.90;;;1.17;;
18544;SDS011;9402;51.460;7.276;2023-04-01T04:26:19;3.77;;;1.23;;
18544;SDS011;9402;51.460;7.276;2023-04-01T04:28:21;4.13;;;1.40;;
18544;SDS011;9402;51.460;7.276;2023-04-01T04:30:24;4.20;;;1.43;;
18544;SDS011;9402;51.460;7.276;2023-04-01T04:32:26;4.90;;;1.20;;
18544;SDS011;9402;51.460;7.276;2023-04-01T04:34:28;4.50;;;1.30;;
18544;SDS011;9402;51.460;7.276;2023-04-01T04:36:31;3.17;;;1.00;;
18544;SDS011;9402;51.460;7.276;2023-04-01T04:38:34;4.23;;;1.20;;
18544;SDS011;9402;51.460;7.276;2023-04-01T04:40:36;3.73;;;1.40;;
18544;SDS011;9402;51.460;7.276;2023-04-01T04:42:38;3.20;;;1.20;;
18544;SDS011;9402;51.460;7.276;2023-04-01T04:44:40;4.37;;;1.77;;
18544;SDS011;9402;51.460;7.276;2023-04-01T04:46:43;4.53;;;1.40;;
18544;SDS011;9402;51.460;7.276;2023-04-01T04:48:45;2.93;;;1.27;;
18544;SDS011;9402;51.460;7.276;2023-04-01T04:50:48;3.73;;;1.00;;
18544;SDS011;9402;51.460;7.276;2023-04-01T04:52:52;3.77;;;1.20;;
18544;SDS011;9402;51.460;7.276;2023-04-01T04:54:55;3.97;;;1.00;;
18544;SDS011;9402;51.460;7.276;2023-04-01T04:56:57;5.03;;;1.23;;
18544;SDS011;9402;51.460;7.276;2023-04-01T04:58:59;4.03;;;1.10;;
18544;SDS011;9402;51.460;7.276;2023-04-01T05:01:05;5.00;;;1.20;;
18544;SDS011;9402;51.460;7.276;2023-04-01T05:03:08;3.43;;;1.10;;
18544;SDS011;9402;51.460;7.276;2023-04-01T05:05:11;3.27;;;1.07;;
18544;SDS011;9402;51.460;7.276;2023-04-01T05:07:13;6.90;;;1.20;;
18544;SDS011;9402;51.460;7.276;2023-04-01T05:09:17;4.73;;;1.10;;
18544;SDS011;9402;51.460;7.276;2023-04-01T05:11:19;3.80;;;1.00;;
18544;SDS011;9402;51.460;7.276;2023-04-01T05:13:22;3.90;;;1.10;;
18544;SDS011;9402;51.460;7.276;2023-04-01T05:15:24;11.13;;;1.40;;
18544;SDS011;9402;51.460;7.276;2023-04-01T05:17:26;3.80;;;1.10;;
18544;SDS011;9402;51.460;7.276;2023-04-01T05:19:28;5.33;;;1.10;;
18544;SDS011;9402;51.460;7.276;2023-04-01T05:21:31;4.10;;;1.10;;
18544;SDS011;9402;51.460;7.276;2023-04-01T05:23:34;2.80;;;0.93;;
18544;SDS011;9402;51.460;7.276;2023-04-01T05:25:38;3.70;;;1.30;;
18544;SDS011;9402;51.460;7.276;2023-04-01T05:27:40;5.10;;;1.20;;
18544;SDS011;9402;51.460;7.276;2023-04-01T05:29:43;3.30;;;1.23;;
18544;SDS011;9402;51.460;7.276;2023-04-01T05:31:45;3.20;;;1.20;;
18544;SDS011;9402;51.460;7.276;2023-04-01T05:33:47;9.43;;;1.33;;
18544;SDS011;9402;51.460;7.276;2023-04-01T05:35:50;3.90;;;1.30;;
18544;SDS011;9402;51.460;7.276;2023-04-01T05:37:52;3.50;;;1.43;;
18544;SDS011;9402;51.460;7.276;2023-04-01T05:39:54;3.30;;;1.07;;
18544;SDS011;9402;51.460;7.276;2023-04-01T05:41:59;4.03;;;1.50;;
18544;SDS011;9402;51.460;7.276;2023-04-01T05:44:02;3.33;;;1.10;;
18544;SDS011;9402;51.460;7.276;2023-04-01T05:46:04;3.27;;;1.10;;
18544;SDS011;9402;51.460;7.276;2023-04-01T05:48:07;5.20;;;1.33;;
18544;SDS011;9402;51.460;7.276;2023-04-01T05:50:09;2.63;;;1.00;;
18544;SDS011;9402;51.460;7.276;2023-04-01T05:52:12;3.63;;;1.07;;
18544;SDS011;9402;51.460;7.276;2023-04-01T05:54:14;4.00;;;1.20;;
18544;SDS011;9402;51.460;7.276;2023-04-01T05:56:16;5.40;;;1.40;;
18544;SDS011;9402;51.460;7.276;2023-04-01T05:58:20;3.97;;;1.10;;
18544;SDS011;9402;51.460;7.276;2023-04-01T06:00:22;3.37;;;1.30;;
18544;SDS011;9402;51.460;7.276;2023-04-01T06:02:25;2.90;;;1.13;;
18544;SDS011;9402;51.460;7.276;2023-04-01T06:04:28;5.77;;;1.40;;
18544;SDS011;9402;51.460;7.276;2023-04-01T06:06:34;4.67;;;1.20;;
18544;SDS011;9402;51.460;7.276;2023-04-01T06:08:37;8.20;;;1.23;;
18544;SDS011;9402;51.460;7.276;2023-04-01T06:10:43;3.17;;;0.93;;
18544;SDS011;9402;51.460;7.276;2023-04-01T06:12:56;11.17;;;1.30;;
18544;SDS011;9402;51.460;7.276;2023-04-01T06:15:16;5.87;;;1.30;;
18544;SDS011;9402;51.460;7.276;2023-04-01T06:17:24;3.87;;;1.40;;
18544;SDS011;9402;51.460;7.276;2023-04-01T06:19:33;5.40;;;1.00;;
18544;SDS011;9402;51.460;7.276;2023-04-01T06:21:42;5.10;;;1.50;;
18544;SDS011;9402;51.460;7.276;2023-04-01T06:24:18;3.00;;;1.30;;
18544;SDS011;9402;51.460;7.276;2023-04-01T06:26:30;4.67;;;1.20;;
18544;SDS011;9402;51.460;7.276;2023-04-01T06:28:39;3.03;;;1.20;;
18544;SDS011;9402;51.460;7.276;2023-04-01T06:31:07;2.80;;;1.07;;
18544;SDS011;9402;51.460;7.276;2023-04-01T06:33:27;3.03;;;1.23;;
18544;SDS011;9402;51.460;7.276;2023-04-01T06:35:48;3.50;;;1.13;;
18544;SDS011;9402;51.460;7.276;2023-04-01T06:38:22;2.60;;;1.00;;
18544;SDS011;9402;51.460;7.276;2023-04-01T06:43:03;6.50;;;1.20;;
18544;SDS011;9402;51.460;7.276;2023-04-01T06:45:13;4.83;;;1.20;;
18544;SDS011;9402;51.460;7.276;2023-04-01T06:47:25;3.30;;;1.23;;
18544;SDS011;9402;51.460;7.276;2023-04-01T06:49:35;4.20;;;1.17;;
18544;SDS011;9402;51.460;7.276;2023-04-01T06:51:47;3.20;;;1.23;;
18544;SDS011;9402;51.460;7.276;2023-04-01T06:53:56;3.47;;;1.10;;
18544;SDS011;9402;51.460;7.276;2023-04-01T06:56:04;3.47;;;1.37;;
18544;SDS011;9402;51.460;7.276;2023-04-01T06:58:11;2.73;;;1.07;;
18544;SDS011;9402;51.460;7.276;2023-04-01T07:00:21;3.23;;;1.10;;
18544;SDS011;9402;51.460;7.276;2023-04-01T07:02:31;2.93;;;1.03;;
18544;SDS011;9402;51.460;7.276;2023-04-01T07:04:37;4.23;;;1.37;;
18544;SDS011;9402;51.460;7.276;2023-04-01T07:06:42;3.80;;;1.50;;
18544;SDS011;9402;51.460;7.276;2023-04-01T07:08:47;3.63;;;1.40;;
18544;SDS011;9402;51.460;7.276;2023-04-01T07:10:51;3.83;;;1.60;;
18544;SDS011;9402;51.460;7.276;2023-04-01T07:12:57;5.23;;;1.30;;
18544;SDS011;9402;51.460;7.276;2023-04-01T07:15:04;3.33;;;1.27;;
18544;SDS011;9402;51.460;7.276;2023-04-01T07:17:15;3.60;;;1.67;;
18544;SDS011;9402;51.460;7.276;2023-04-01T07:19:20;4.20;;;1.50;;
18544;SDS011;9402;51.460;7.276;2023-04-01T07:21:26;4.83;;;2.27;;
18544;SDS011;9402;51.460;7.276;2023-04-01T07:23:32;3.77;;;1.60;;
18544;SDS011;9402;51.460;7.276;2023-04-01T07:25:41;5.40;;;1.80;;
18544;SDS011;9402;51.460;7.276;2023-04-01T07:27:45;4.70;;;2.03;;
18544;SDS011;9402;51.460;7.276;2023-04-01T07:29:48;5.40;;;1.70;;
18544;SDS011;9402;51.460;7.276;2023-04-01T07:31:57;3.50;;;1.60;;
18544;SDS011;9402;51.460;7.276;2023-04-01T07:34:09;4.07;;;1.70;;
18544;SDS011;9402;51.460;7.276;2023-04-01T07:36:17;3.73;;;1.93;;
18544;SDS011;9402;51.460;7.276;2023-04-01T07:38:26;3.97;;;1.67;;
18544;SDS011;9402;51.460;7.276;2023-04-01T07:40:39;4.10;;;1.63;;
18544;SDS011;9402;51.460;7.276;2023-04-01T07:42:48;5.30;;;1.60;;
18544;SDS011;9402;51.460;7.276;2023-04-01T07:45:05;4.70;;;1.57;;
18544;SDS011;9402;51.460;7.276;2023-04-01T07:47:19;3.50;;;1.60;;
18544;SDS011;9402;51.460;7.276;2023-04-01T07:49:34;3.23;;;1.37;;
18544;SDS011;9402;51.460;7.276;2023-04-01T07:51:42;4.20;;;1.53;;
18544;SDS011;9402;51.460;7.276;2023-04-01T07:53:49;3.10;;;1.40;;
18544;SDS011;9402;51.460;7.276;2023-04-01T07:55:54;4.43;;;1.57;;
18544;SDS011;9402;51.460;7.276;2023-04-01T07:58:03;3.10;;;1.40;;
18544;SDS011;9402;51.460;7.276;2023-04-01T08:00:12;4.53;;;1.50;;
18544;SDS011;9402;51.460;7.276;2023-04-01T08:02:25;2.90;;;1.40;;
18544;SDS011;9402;51.460;7.276;2023-04-01T08:04:35;3.40;;;1.43;;
18544;SDS011;9402;51.460;7.276;2023-04-01T08:06:45;2.73;;;1.17;;
18544;SDS011;9402;51.460;7.276;2023-04-01T08:08:54;4.33;;;1.40;;
18544;SDS011;9402;51.460;7.276;2023-04-01T08:11:02;3.50;;;1.37;;
18544;SDS011;9402;51.460;7.276;2023-04-01T08:13:12;2.90;;;1.30;;
18544;SDS011;9402;51.460;7.276;2023-04-01T08:15:19;4.07;;;1.40;;
18544;SDS011;9402;51.460;7.276;2023-04-01T08:17:28;5.10;;;1.87;;
18544;SDS011;9402;51.460;7.276;2023-04-01T08:19:37;5.60;;;1.37;;
18544;SDS011;9402;51.460;7.276;2023-04-01T08:21:51;4.03;;;1.53;;
18544;SDS011;9402;51.460;7.276;2023-04-01T08:23:55;4.17;;;1.47;;
18544;SDS011;9402;51.460;7.276;2023-04-01T08:26:00;3.53;;;1.23;;
18544;SDS011;9402;51.460;7.276;2023-04-01T08:28:09;2.63;;;1.13;;
18544;SDS011;9402;51.460;7.276;2023-04-01T08:30:16;3.27;;;1.20;;
18544;SDS011;9402;51.460;7.276;2023-04-01T08:32:21;3.27;;;1.47;;
18544;SDS011;9402;51.460;7.276;2023-04-01T08:34:28;3.00;;;1.37;;
18544;SDS011;9402;51.460;7.276;2023-04-01T08:36:34;4.07;;;1.60;;
18544;SDS011;9402;51.460;7.276;2023-04-01T08:38:40;3.30;;;1.50;;
18544;SDS011;9402;51.460;7.276;2023-04-01T08:43:06;3.20;;;1.30;;
18544;SDS011;9402;51.460;7.276;2023-04-01T08:45:35;3.57;;;1.80;;
18544;SDS011;9402;51.460;7.276;2023-04-01T08:48:04;3.07;;;1.50;;
18544;SDS011;9402;51.460;7.276;2023-04-01T08:52:52;5.50;;;3.10;;
18544;SDS011;9402;51.460;7.276;2023-04-01T08:57:28;3.50;;;1.97;;
18544;SDS011;9402;51.460;7.276;2023-04-01T08:59:43;6.07;;;2.67;;
18544;SDS011;9402;51.460;7.276;2023-04-01T09:01:57;5.20;;;2.70;;
18544;SDS011;9402;51.460;7.276;2023-04-01T09:04:25;5.27;;;2.73;;
18544;SDS011;9402;51.460;7.276;2023-04-01T09:06:37;5.30;;;2.70;;
18544;SDS011;9402;51.460;7.276;2023-04-01T09:08:48;9.87;;;3.30;;
18544;SDS011;9402;51.460;7.276;2023-04-01T09:11:18;5.90;;;3.50;;
18544;SDS011;9402;51.460;7.276;2023-04-01T09:13:29;6.37;;;3.23;;
18544;SDS011;9402;51.460;7.276;2023-04-01T09:15:56;4.97;;;3.00;;
18544;SDS011;9402;51.460;7.276;2023-04-01T09:18:15;4.00;;;2.10;;
18544;SDS011;9402;51.460;7.276;2023-04-01T09:23:02;6.80;;;3.57;;
18544;SDS011;9402;51.460;7.276;2023-04-01T09:25:22;6.27;;;3.50;;
18544;SDS011;9402;51.460;7.276;2023-04-01T09:27:44;5.97;;;2.90;;
18544;SDS011;9402;51.460;7.276;2023-04-01T09:32:39;6.90;;;4.20;;
18544;SDS011;9402;51.460;7.276;2023-04-01T09:35:02;6.47;;;4.07;;
18544;SDS011;9402;51.460;7.276;2023-04-01T09:37:17;4.83;;;3.40;;
18544;SDS011;9402;51.460;7.276;2023-04-01T09:39:25;10.40;;;4.90;;
18544;SDS011;9402;51.460;7.276;2023-04-01T09:41:36;6.60;;;4.40;;
18544;SDS011;9402;51.460;7.276;2023-04-01T09:43:56;10.03;;;4.93;;
18544;SDS011;9402;51.460;7.276;2023-04-01T09:46:19;8.70;;;5.30;;
18544;SDS011;9402;51.460;7.276;2023-04-01T09:48:30;9.33;;;6.30;;
18544;SDS011;9402;51.460;7.276;2023-04-01T09:50:57;9.50;;;6.70;;
18544;SDS011;9402;51.460;7.276;2023-04-01T09:53:11;9.60;;;6.53;;
18544;SDS011;9402;51.460;7.276;2023-04-01T09:55:27;11.80;;;7.03;;
18544;SDS011;9402;51.460;7.276;2023-04-01T09:58:04;13.13;;;8.50;;
18544;SDS011;9402;51.460;7.276;2023-04-01T10:03:19;11.67;;;7.30;;
18544;SDS011;9402;51.460;7.276;2023-04-01T10:05:50;11.87;;;8.53;;
18544;SDS011;9402;51.460;7.276;2023-04-01T10:11:00;13.30;;;8.20;;
18544;SDS011;9402;51.460;7.276;2023-04-01T10:16:13;13.07;;;9.30;;
18544;SDS011;9402;51.460;7.276;2023-04-01T10:21:05;12.17;;;7.20;;
18544;SDS011;9402;51.460;7.276;2023-04-01T10:23:43;11.80;;;8.40;;
18544;SDS011;9402;51.460;7.276;2023-04-01T10:26:11;11.37;;;7.97;;
18544;SDS011;9402;51.460;7.276;2023-04-01T10:28:31;12.47;;;10.00;;
18544;SDS011;9402;51.460;7.276;2023-04-01T10:30:49;11.87;;;8.73;;
18544;SDS011;9402;51.460;7.276;2023-04-01T10:33:20;10.97;;;8.30;;
18544;SDS011;9402;51.460;7.276;2023-04-01T10:43:39;11.90;;;8.07;;
18544;SDS011;9402;51.460;7.276;2023-04-01T10:46:09;11.77;;;8.17;;
18544;SDS011;9402;51.460;7.276;2023-04-01T10:48:38;9.23;;;6.20;;
18544;SDS011;9402;51.460;7.276;2023-04-01T10:51:04;12.47;;;8.30;;
18544;SDS011;9402;51.460;7.276;2023-04-01T10:56:07;9.80;;;6.97;;
18544;SDS011;9402;51.460;7.276;2023-04-01T11:01:27;9.90;;;6.03;;
18544;SDS011;9402;51.460;7.276;2023-04-01T11:12:14;16.03;;;7.10;;
18544;SDS011;9402;51.460;7.276;2023-04-01T11:14:30;9.00;;;6.33;;
18544;SDS011;9402;51.460;7.276;2023-04-01T11:16:55;8.93;;;6.50;;
18544;SDS011;9402;51.460;7.276;2023-04-01T11:19:10;9.97;;;6.70;;
18544;SDS011;9402;51.460;7.276;2023-04-01T11:21:28;10.17;;;6.57;;
18544;SDS011;9402;51.460;7.276;2023-04-01T11:23:53;8.87;;;6.47;;
18544;SDS011;9402;51.460;7.276;2023-04-01T11:26:09;8.90;;;6.00;;
18544;SDS011;9402;51.460;7.276;2023-04-01T11:28:20;9.13;;;6.87;;
18544;SDS011;9402;51.460;7.276;2023-04-01T11:30:29;10.03;;;6.50;;
18544;SDS011;9402;51.460;7.276;2023-04-01T11:32:46;10.10;;;6.80;;
18544;SDS011;9402;51.460;7.276;2023-04-01T11:34:57;12.10;;;7.23;;
18544;SDS011;9402;51.460;7.276;2023-04-01T11:37:25;12.20;;;6.40;;
18544;SDS011;9402;51.460;7.276;2023-04-01T11:39:33;9.17;;;6.23;;
18544;SDS011;9402;51.460;7.276;2023-04-01T11:41:40;8.53;;;5.90;;
18544;SDS011;9402;51.460;7.276;2023-04-01T11:43:47;10.77;;;6.47;;
18544;SDS011;9402;51.460;7.276;2023-04-01T11:45:57;10.10;;;6.50;;
18544;SDS011;9402;51.460;7.276;2023-04-01T11:50:38;9.30;;;6.47;;
18544;SDS011;9402;51.460;7.276;2023-04-01T11:53:02;9.77;;;6.20;;
18544;SDS011;9402;51.460;7.276;2023-04-01T11:55:19;9.23;;;6.80;;
18544;SDS011;9402;51.460;7.276;2023-04-01T11:57:35;9.87;;;6.90;;
18544;SDS011;9402;51.460;7.276;2023-04-01T11:59:51;9.23;;;6.00;;
18544;SDS011;9402;51.460;7.276;2023-04-01T12:02:01;10.13;;;6.50;;
18544;SDS011;9402;51.460;7.276;2023-04-01T12:04:18;9.70;;;6.93;;
18544;SDS011;9402;51.460;7.276;2023-04-01T12:06:40;9.27;;;5.97;;
18544;SDS011;9402;51.460;7.276;2023-04-01T12:08:46;9.10;;;6.00;;
18544;SDS011;9402;51.460;7.276;2023-04-01T12:10:59;9.83;;;6.20;;
18544;SDS011;9402;51.460;7.276;2023-04-01T12:13:08;7.87;;;5.70;;
18544;SDS011;9402;51.460;7.276;2023-04-01T12:15:18;9.63;;;5.97;;
18544;SDS011;9402;51.460;7.276;2023-04-01T12:17:27;7.83;;;5.43;;
18544;SDS011;9402;51.460;7.276;2023-04-01T12:19:35;9.23;;;6.13;;
18544;SDS011;9402;51.460;7.276;2023-04-01T12:21:44;7.27;;;4.70;;
18544;SDS011;9402;51.460;7.276;2023-04-01T12:23:56;12.17;;;5.87;;
18544;SDS011;9402;51.460;7.276;2023-04-01T12:26:15;8.70;;;5.60;;
18544;SDS011;9402;51.460;7.276;2023-04-01T12:28:25;9.80;;;7.20;;
18544;SDS011;9402;51.460;7.276;2023-04-01T12:30:42;9.10;;;6.53;;
18544;SDS011;9402;51.460;7.276;2023-04-01T12:32:52;7.77;;;5.10;;
18544;SDS011;9402;51.460;7.276;2023-04-01T12:35:04;8.07;;;5.47;;
18544;SDS011;9402;51.460;7.276;2023-04-01T12:37:20;8.00;;;5.10;;
18544;SDS011;9402;51.460;7.276;2023-04-01T12:39:42;8.17;;;4.93;;
18544;SDS011;9402;51.460;7.276;2023-04-01T12:41:59;7.80;;;4.90;;
18544;SDS011;9402;51.460;7.276;2023-04-01T12:44:12;9.90;;;4.90;;
18544;SDS011;9402;51.460;7.276;2023-04-01T12:46:24;8.00;;;4.80;;
18544;SDS011;9402;51.460;7.276;2023-04-01T12:48:46;11.80;;;4.93;;
18544;SDS011;9402;51.460;7.276;2023-04-01T12:51:07;7.17;;;4.93;;
18544;SDS011;9402;51.460;7.276;2023-04-01T12:53:43;7.00;;;4.60;;
18544;SDS011;9402;51.460;7.276;2023-04-01T12:56:04;9.93;;;6.63;;
18544;SDS011;9402;51.460;7.276;2023-04-01T13:00:46;10.67;;;7.97;;
18544;SDS011;9402;51.460;7.276;2023-04-01T13:03:03;12.37;;;7.80;;
18544;SDS011;9402;51.460;7.276;2023-04-01T13:05:20;16.20;;;9.20;;
18544;SDS011;9402;51.460;7.276;2023-04-01T13:10:11;15.20;;;8.73;;
18544;SDS011;9402;51.460;7.276;2023-04-01T13:12:24;13.27;;;9.00;;
18544;SDS011;9402;51.460;7.276;2023-04-01T13:14:48;13.20;;;9.00;;
18544;SDS011;9402;51.460;7.276;2023-04-01T13:17:01;10.00;;;8.03;;
18544;SDS011;9402;51.460;7.276;2023-04-01T13:19:09;10.47;;;7.43;;
18544;SDS011;9402;51.460;7.276;2023-04-01T13:21:16;10.30;;;7.80;;
18544;SDS011;9402;51.460;7.276;2023-04-01T13:23:24;11.40;;;8.57;;
18544;SDS011;9402;51.460;7.276;2023-04-01T13:25:36;11.03;;;7.87;;
18544;SDS011;9402;51.460;7.276;2023-04-01T13:27:43;10.47;;;7.33;;
18544;SDS011;9402;51.460;7.276;2023-04-01T13:29:50;10.30;;;7.60;;
18544;SDS011;9402;51.460;7.276;2023-04-01T13:32:13;9.77;;;6.90;;
18544;SDS011;9402;51.460;7.276;2023-04-01T13:34:30;11.93;;;8.40;;
18544;SDS011;9402;51.460;7.276;2023-04-01T13:36:40;11.20;;;8.20;;
18544;SDS011;9402;51.460;7.276;2023-04-01T13:38:48;11.23;;;9.23;;
18544;SDS011;9402;51.460;7.276;2023-04-01T13:40:59;10.70;;;8.07;;
18544;SDS011;9402;51.460;7.276;2023-04-01T13:43:12;16.53;;;8.97;;
18544;SDS011;9402;51.460;7.276;2023-04-01T13:45:19;13.70;;;9.70;;
18544;SDS011;9402;51.460;7.276;2023-04-01T13:52:29;13.80;;;8.93;;
18544;SDS011;9402;51.460;7.276;2023-04-01T13:54:49;11.80;;;9.10;;
18544;SDS011;9402;51.460;7.276;2023-04-01T13:57:05;14.10;;;9.40;;
18544;SDS011;9402;51.460;7.276;2023-04-01T14:01:47;15.07;;;10.53;;
18544;SDS011;9402;51.460;7.276;2023-04-01T14:06:19;10.90;;;7.83;;
18544;SDS011;9402;51.460;7.276;2023-04-01T14:11:09;11.33;;;7.80;;
18544;SDS011;9402;51.460;7.276;2023-04-01T14:13:15;11.20;;;8.60;;
18544;SDS011;9402;51.460;7.276;2023-04-01T14:15:25;13.90;;;9.90;;
18544;SDS011;9402;51.460;7.276;2023-04-01T14:17:47;13.90;;;9.63;;